sensor_id;sensor_type;location;lat;lon;timestamp;temperature;humidity
41262;DHT22;29629;52.532;13.352;2023-09-30T00:00:25;18.10;99.90
41262;DHT22;29629;52.532;13.352;2023-09-30T00:02:53;18.10;99.90
41262;DHT22;29629;52.532;13.352;2023-09-30T00:05:21;18.00;99.90
41262;DHT22;29629;52.532;13.352;2023-09-30T00:07:48;17.90;99.90
41262;DHT22;29629;52.532;13.352;2023-09-30T00:10:15;17.90;99.90
41262;DHT22;29629;52.532;13.352;2023-09-30T00:12:42;17.90;99.90
41262;DHT22;29629;52.532;13.352;2023-09-30T00:15:10;17.80;99.90
41262;DHT22;29629;52.532;13.352;2023-09-30T00:17:37;17.70;99.90
41262;DHT22;29629;52.532;13.352;2023-09-30T00:20:05;17.70;99.90
41262;DHT22;29629;52.532;13.352;2023-09-30T00:22:34;17.70;99.90
41262;DHT22;29629;52.532;13.352;2023-09-30T00:25:01;17.60;99.90
41262;DHT22;29629;52.532;13.352;2023-09-30T00:27:27;17.50;99.90
41262;DHT22;29629;52.532;13.352;2023-09-30T00:29:54;17.30;99.90
41262;DHT22;29629;52.532;13.352;2023-09-30T00:32:21;17.40;99.90
41262;DHT22;29629;52.532;13.352;2023-09-30T00:34:48;17.30;99.90
41262;DHT22;29629;52.532;13.352;2023-09-30T00:37:17;17.30;99.90
41262;DHT22;29629;52.532;13.352;2023-09-30T00:39:45;17.20;99.90
41262;DHT22;29629;52.532;13.352;2023-09-30T00:42:12;17.20;99.90
41262;DHT22;29629;52.532;13.352;2023-09-30T00:44:39;17.20;99.90
41262;DHT22;29629;52.532;13.352;2023-09-30T00:47:06;17.20;99.90
41262;DHT22;29629;52.532;13.352;2023-09-30T00:49:36;17.10;99.90
41262;DHT22;29629;52.532;13.352;2023-09-30T00:52:03;17.00;99.90
41262;DHT22;29629;52.532;13.352;2023-09-30T00:54:30;16.90;99.90
41262;DHT22;29629;52.532;13.352;2023-09-30T00:56:59;16.90;99.90
41262;DHT22;29629;52.532;13.352;2023-09-30T00:59:28;17.00;99.90
41262;DHT22;29629;52.532;13.352;2023-09-30T01:01:56;16.90;99.90
41262;DHT22;29629;52.532;13.352;2023-09-30T01:04:27;16.80;99.90
41262;DHT22;29629;52.532;13.352;2023-09-30T01:06:54;16.70;99.90
41262;DHT22;29629;52.532;13.352;2023-09-30T01:09:23;16.70;99.90
41262;DHT22;29629;52.532;13.352;2023-09-30T01:11:50;16.70;99.90
41262;DHT22;29629;52.532;13.352;2023-09-30T01:14:25;16.60;99.90
41262;DHT22;29629;52.532;13.352;2023-09-30T01:16:53;16.50;99.90
41262;DHT22;29629;52.532;13.352;2023-09-30T01:19:19;16.40;99.90
41262;DHT22;29629;52.532;13.352;2023-09-30T01:21:48;16.30;99.90
41262;DHT22;29629;52.532;13.352;2023-09-30T01:24:15;16.30;99.90
41262;DHT22;29629;52.532;13.352;2023-09-30T01:26:42;16.20;99.90
41262;DHT22;29629;52.532;13.352;2023-09-30T01:29:09;16.30;99.90
41262;DHT22;29629;52.532;13.352;2023-09-30T01:31:37;16.30;99.90
41262;DHT22;29629;52.532;13.352;2023-09-30T01:34:05;16.20;99.90
41262;DHT22;29629;52.532;13.352;2023-09-30T01:36:33;16.10;99.90
41262;DHT22;29629;52.532;13.352;2023-09-30T01:39:01;16.00;99.90
41262;DHT22;29629;52.532;13.352;2023-09-30T01:41:28;16.00;99.90
41262;DHT22;29629;52.532;13.352;2023-09-30T01:43:55;16.00;99.90
41262;DHT22;29629;52.532;13.352;2023-09-30T01:46:22;16.10;99.90
41262;DHT22;29629;52.532;13.352;2023-09-30T01:48:49;16.00;99.90
41262;DHT22;29629;52.532;13.352;2023-09-30T01:51:16;16.00;99.90
41262;DHT22;29629;52.532;13.352;2023-09-30T01:53:43;15.80;99.90
41262;DHT22;29629;52.532;13.352;2023-09-30T01:56:11;15.70;99.90
41262;DHT22;29629;52.532;13.352;2023-09-30T01:58:38;15.70;99.90
41262;DHT22;29629;52.532;13.352;2023-09-30T02:01:05;15.80;99.90
41262;DHT22;29629;52.532;13.352;2023-09-30T02:03:32;15.80;99.90
41262;DHT22;29629;52.532;13.352;2023-09-30T02:05:59;15.80;99.90
41262;DHT22;29629;52.532;13.352;2023-09-30T02:08:26;15.80;99.90
41262;DHT22;29629;52.532;13.352;2023-09-30T02:10:53;15.80;99.90
41262;DHT22;29629;52.532;13.352;2023-09-30T02:13:22;15.90;99.90
41262;DHT22;29629;52.532;13.352;2023-09-30T02:15:48;15.70;99.90
41262;DHT22;29629;52.532;13.352;2023-09-30T02:18:16;15.70;99.90
41262;DHT22;29629;52.532;13.352;2023-09-30T02:20:43;15.60;99.90
41262;DHT22;29629;52.532;13.352;2023-09-30T02:23:10;15.60;99.90
41262;DHT22;29629;52.532;13.352;2023-09-30T02:25:37;15.60;99.90
41262;DHT22;29629;52.532;13.352;2023-09-30T02:28:05;15.50;99.90
41262;DHT22;29629;52.532;13.352;2023-09-30T02:30:34;15.50;99.90
41262;DHT22;29629;52.532;13.352;2023-09-30T02:33:02;15.40;99.90
41262;DHT22;29629;52.532;13.352;2023-09-30T02:35:30;15.40;99.90
41262;DHT22;29629;52.532;13.352;2023-09-30T02:37:58;15.40;99.90
41262;DHT22;29629;52.532;13.352;2023-09-30T02:40:25;15.40;99.90
41262;DHT22;29629;52.532;13.352;2023-09-30T02:42:51;15.40;99.90
41262;DHT22;29629;52.532;13.352;2023-09-30T02:45:19;15.40;99.90
41262;DHT22;29629;52.532;13.352;2023-09-30T02:47:47;15.30;99.90
41262;DHT22;29629;52.532;13.352;2023-09-30T02:50:14;15.30;99.90
41262;DHT22;29629;52.532;13.352;2023-09-30T02:52:41;15.30;99.90
41262;DHT22;29629;52.532;13.352;2023-09-30T02:55:09;15.30;99.90
41262;DHT22;29629;52.532;13.352;2023-09-30T02:57:36;15.30;99.90
41262;DHT22;29629;52.532;13.352;2023-09-30T03:00:04;15.20;99.90
41262;DHT22;29629;52.532;13.352;2023-09-30T03:02:39;15.20;99.90
41262;DHT22;29629;52.532;13.352;2023-09-30T03:05:09;15.20;99.90
41262;DHT22;29629;52.532;13.352;2023-09-30T03:07:35;15.20;99.90
41262;DHT22;29629;52.532;13.352;2023-09-30T03:10:04;15.30;99.90
41262;DHT22;29629;52.532;13.352;2023-09-30T03:12:31;15.20;99.90
41262;DHT22;29629;52.532;13.352;2023-09-30T03:14:59;15.20;99.90
41262;DHT22;29629;52.532;13.352;2023-09-30T03:17:29;15.30;99.90
41262;DHT22;29629;52.532;13.352;2023-09-30T03:19:57;15.20;99.90
41262;DHT22;29629;52.532;13.352;2023-09-30T03:22:26;15.30;99.90
41262;DHT22;29629;52.532;13.352;2023-09-30T03:24:53;15.20;99.90
41262;DHT22;29629;52.532;13.352;2023-09-30T03:27:20;15.10;99.90
41262;DHT22;29629;52.532;13.352;2023-09-30T03:29:47;15.10;99.90
41262;DHT22;29629;52.532;13.352;2023-09-30T03:32:15;15.20;99.90
41262;DHT22;29629;52.532;13.352;2023-09-30T03:34:42;15.20;99.90
41262;DHT22;29629;52.532;13.352;2023-09-30T03:37:11;15.10;99.90
41262;DHT22;29629;52.532;13.352;2023-09-30T03:39:40;15.00;99.90
41262;DHT22;29629;52.532;13.352;2023-09-30T03:42:07;15.00;99.90
41262;DHT22;29629;52.532;13.352;2023-09-30T03:44:37;14.90;99.90
41262;DHT22;29629;52.532;13.352;2023-09-30T03:47:04;15.00;99.90
41262;DHT22;29629;52.532;13.352;2023-09-30T03:49:33;14.90;99.90
41262;DHT22;29629;52.532;13.352;2023-09-30T03:51:59;15.00;99.90
41262;DHT22;29629;52.532;13.352;2023-09-30T03:54:27;14.90;99.90
41262;DHT22;29629;52.532;13.352;2023-09-30T03:56:55;14.80;99.90
41262;DHT22;29629;52.532;13.352;2023-09-30T03:59:22;14.80;99.90
41262;DHT22;29629;52.532;13.352;2023-09-30T04:01:49;14.60;99.90
41262;DHT22;29629;52.532;13.352;2023-09-30T04:04:17;14.70;99.90
41262;DHT22;29629;52.532;13.352;2023-09-30T04:06:44;14.70;99.90
41262;DHT22;29629;52.532;13.352;2023-09-30T04:09:13;14.60;99.90
41262;DHT22;29629;52.532;13.352;2023-09-30T04:11:42;14.70;99.90
41262;DHT22;29629;52.532;13.352;2023-09-30T04:14:10;14.60;99.90
41262;DHT22;29629;52.532;13.352;2023-09-30T04:16:37;14.50;99.90
41262;DHT22;29629;52.532;13.352;2023-09-30T04:19:04;14.60;99.90
41262;DHT22;29629;52.532;13.352;2023-09-30T04:21:33;14.60;99.90
41262;DHT22;29629;52.532;13.352;2023-09-30T04:24:00;14.60;99.90
41262;DHT22;29629;52.532;13.352;2023-09-30T04:26:29;14.60;99.90
41262;DHT22;29629;52.532;13.352;2023-09-30T04:28:56;14.60;99.90
41262;DHT22;29629;52.532;13.352;2023-09-30T04:31:25;14.60;99.90
41262;DHT22;29629;52.532;13.352;2023-09-30T04:33:52;14.60;99.90
41262;DHT22;29629;52.532;13.352;2023-09-30T04:36:19;14.50;99.90
41262;DHT22;29629;52.532;13.352;2023-09-30T04:38:46;14.50;99.90
41262;DHT22;29629;52.532;13.352;2023-09-30T04:41:13;14.50;99.90
41262;DHT22;29629;52.532;13.352;2023-09-30T04:43:41;14.40;99.90
41262;DHT22;29629;52.532;13.352;2023-09-30T04:46:09;14.50;99.90
41262;DHT22;29629;52.532;13.352;2023-09-30T04:48:39;14.50;99.90
41262;DHT22;29629;52.532;13.352;2023-09-30T04:51:07;14.50;99.90
41262;DHT22;29629;52.532;13.352;2023-09-30T04:53:34;14.40;99.90
41262;DHT22;29629;52.532;13.352;2023-09-30T04:56:02;14.40;99.90
41262;DHT22;29629;52.532;13.352;2023-09-30T04:58:29;14.30;99.90
41262;DHT22;29629;52.532;13.352;2023-09-30T05:00:57;14.30;99.90
41262;DHT22;29629;52.532;13.352;2023-09-30T05:03:23;14.30;99.90
41262;DHT22;29629;52.532;13.352;2023-09-30T05:05:52;14.20;99.90
41262;DHT22;29629;52.532;13.352;2023-09-30T05:08:22;14.20;99.90
41262;DHT22;29629;52.532;13.352;2023-09-30T05:10:49;14.20;99.90
41262;DHT22;29629;52.532;13.352;2023-09-30T05:13:16;14.10;99.90
41262;DHT22;29629;52.532;13.352;2023-09-30T05:15:43;14.10;99.90
41262;DHT22;29629;52.532;13.352;2023-09-30T05:18:10;14.20;99.90
41262;DHT22;29629;52.532;13.352;2023-09-30T05:20:37;14.10;99.90
41262;DHT22;29629;52.532;13.352;2023-09-30T05:23:06;14.20;99.90
41262;DHT22;29629;52.532;13.352;2023-09-30T05:25:33;14.00;99.90
41262;DHT22;29629;52.532;13.352;2023-09-30T05:28:00;14.10;99.90
41262;DHT22;29629;52.532;13.352;2023-09-30T05:30:27;14.20;99.90
41262;DHT22;29629;52.532;13.352;2023-09-30T05:32:55;14.10;99.90
41262;DHT22;29629;52.532;13.352;2023-09-30T05:35:22;14.10;99.90
41262;DHT22;29629;52.532;13.352;2023-09-30T05:37:49;14.10;99.90
41262;DHT22;29629;52.532;13.352;2023-09-30T05:40:20;14.10;99.90
41262;DHT22;29629;52.532;13.352;2023-09-30T05:42:51;14.10;99.90
41262;DHT22;29629;52.532;13.352;2023-09-30T05:45:18;14.10;99.90
41262;DHT22;29629;52.532;13.352;2023-09-30T05:47:46;14.00;99.90
41262;DHT22;29629;52.532;13.352;2023-09-30T05:50:12;14.20;99.90
41262;DHT22;29629;52.532;13.352;2023-09-30T05:52:42;14.10;99.90
41262;DHT22;29629;52.532;13.352;2023-09-30T05:55:10;14.20;99.90
41262;DHT22;29629;52.532;13.352;2023-09-30T05:57:38;14.20;99.90
41262;DHT22;29629;52.532;13.352;2023-09-30T06:00:07;14.40;99.90
41262;DHT22;29629;52.532;13.352;2023-09-30T06:02:53;14.50;99.90
41262;DHT22;29629;52.532;13.352;2023-09-30T06:05:21;14.50;99.90
41262;DHT22;29629;52.532;13.352;2023-09-30T06:07:48;14.60;99.90
41262;DHT22;29629;52.532;13.352;2023-09-30T06:10:16;14.70;99.90
41262;DHT22;29629;52.532;13.352;2023-09-30T06:12:46;14.80;99.90
41262;DHT22;29629;52.532;13.352;2023-09-30T06:15:13;15.00;99.90
41262;DHT22;29629;52.532;13.352;2023-09-30T06:17:41;15.00;99.90
41262;DHT22;29629;52.532;13.352;2023-09-30T06:20:09;15.10;99.90
41262;DHT22;29629;52.532;13.352;2023-09-30T06:22:41;15.10;99.90
41262;DHT22;29629;52.532;13.352;2023-09-30T06:25:09;15.10;99.90
41262;DHT22;29629;52.532;13.352;2023-09-30T06:27:36;15.10;99.90
41262;DHT22;29629;52.532;13.352;2023-09-30T06:30:06;15.10;99.90
41262;DHT22;29629;52.532;13.352;2023-09-30T06:32:34;15.20;99.90
41262;DHT22;29629;52.532;13.352;2023-09-30T06:35:02;15.10;99.90
41262;DHT22;29629;52.532;13.352;2023-09-30T06:37:29;15.00;99.90
41262;DHT22;29629;52.532;13.352;2023-09-30T06:39:56;15.00;99.90
41262;DHT22;29629;52.532;13.352;2023-09-30T06:42:24;15.00;99.90
41262;DHT22;29629;52.532;13.352;2023-09-30T06:44:53;15.10;99.90
41262;DHT22;29629;52.532;13.352;2023-09-30T06:47:21;15.30;99.90
41262;DHT22;29629;52.532;13.352;2023-09-30T06:49:48;15.20;99.90
41262;DHT22;29629;52.532;13.352;2023-09-30T06:52:15;15.30;99.90
41262;DHT22;29629;52.532;13.352;2023-09-30T06:54:42;15.50;99.90
41262;DHT22;29629;52.532;13.352;2023-09-30T06:57:09;15.40;99.90
41262;DHT22;29629;52.532;13.352;2023-09-30T06:59:36;15.40;99.90
41262;DHT22;29629;52.532;13.352;2023-09-30T07:02:04;15.40;99.90
41262;DHT22;29629;52.532;13.352;2023-09-30T07:04:33;15.60;99.90
41262;DHT22;29629;52.532;13.352;2023-09-30T07:07:00;15.50;99.90
41262;DHT22;29629;52.532;13.352;2023-09-30T07:09:26;15.70;99.90
41262;DHT22;29629;52.532;13.352;2023-09-30T07:11:53;15.80;99.90
41262;DHT22;29629;52.532;13.352;2023-09-30T07:14:20;15.90;99.90
41262;DHT22;29629;52.532;13.352;2023-09-30T07:16:47;15.80;99.90
41262;DHT22;29629;52.532;13.352;2023-09-30T07:19:14;15.70;99.90
41262;DHT22;29629;52.532;13.352;2023-09-30T07:21:42;15.80;99.90
41262;DHT22;29629;52.532;13.352;2023-09-30T07:24:09;15.70;99.90
41262;DHT22;29629;52.532;13.352;2023-09-30T07:26:36;15.80;99.90
41262;DHT22;29629;52.532;13.352;2023-09-30T07:29:03;15.90;99.90
41262;DHT22;29629;52.532;13.352;2023-09-30T07:31:34;16.00;99.90
41262;DHT22;29629;52.532;13.352;2023-09-30T07:34:02;16.20;99.90
41262;DHT22;29629;52.532;13.352;2023-09-30T07:36:29;16.10;99.90
41262;DHT22;29629;52.532;13.352;2023-09-30T07:38:58;16.10;99.90
41262;DHT22;29629;52.532;13.352;2023-09-30T07:41:26;16.30;99.90
41262;DHT22;29629;52.532;13.352;2023-09-30T07:43:53;16.30;99.90
41262;DHT22;29629;52.532;13.352;2023-09-30T07:46:20;16.20;99.90
41262;DHT22;29629;52.532;13.352;2023-09-30T07:48:47;16.30;99.90
41262;DHT22;29629;52.532;13.352;2023-09-30T07:51:14;16.30;99.90
41262;DHT22;29629;52.532;13.352;2023-09-30T07:53:41;16.20;99.90
41262;DHT22;29629;52.532;13.352;2023-09-30T07:56:09;16.10;99.90
41262;DHT22;29629;52.532;13.352;2023-09-30T07:58:36;16.00;99.90
41262;DHT22;29629;52.532;13.352;2023-09-30T08:01:03;16.10;99.90
41262;DHT22;29629;52.532;13.352;2023-09-30T08:03:30;16.10;99.90
41262;DHT22;29629;52.532;13.352;2023-09-30T08:05:57;16.00;99.90
41262;DHT22;29629;52.532;13.352;2023-09-30T08:08:24;16.20;99.90
41262;DHT22;29629;52.532;13.352;2023-09-30T08:10:51;16.30;99.90
41262;DHT22;29629;52.532;13.352;2023-09-30T08:13:22;16.40;99.90
41262;DHT22;29629;52.532;13.352;2023-09-30T08:15:49;16.50;99.90
41262;DHT22;29629;52.532;13.352;2023-09-30T08:18:17;16.50;99.90
41262;DHT22;29629;52.532;13.352;2023-09-30T08:20:44;16.70;99.90
41262;DHT22;29629;52.532;13.352;2023-09-30T08:23:10;16.90;99.90
41262;DHT22;29629;52.532;13.352;2023-09-30T08:25:38;17.20;99.90
41262;DHT22;29629;52.532;13.352;2023-09-30T08:28:05;17.50;99.90
41262;DHT22;29629;52.532;13.352;2023-09-30T08:30:37;17.50;99.90
41262;DHT22;29629;52.532;13.352;2023-09-30T08:33:04;17.70;99.90
41262;DHT22;29629;52.532;13.352;2023-09-30T08:35:35;18.00;99.90
41262;DHT22;29629;52.532;13.352;2023-09-30T08:38:03;18.40;99.90
41262;DHT22;29629;52.532;13.352;2023-09-30T08:40:30;18.20;99.90
41262;DHT22;29629;52.532;13.352;2023-09-30T08:42:57;18.20;99.90
41262;DHT22;29629;52.532;13.352;2023-09-30T08:45:28;18.40;99.90
41262;DHT22;29629;52.532;13.352;2023-09-30T08:47:57;18.60;99.90
41262;DHT22;29629;52.532;13.352;2023-09-30T08:50:26;18.50;99.90
41262;DHT22;29629;52.532;13.352;2023-09-30T08:52:53;18.70;99.90
41262;DHT22;29629;52.532;13.352;2023-09-30T08:55:20;18.70;99.90
41262;DHT22;29629;52.532;13.352;2023-09-30T08:57:48;18.60;99.90
41262;DHT22;29629;52.532;13.352;2023-09-30T09:00:17;18.80;99.90
41262;DHT22;29629;52.532;13.352;2023-09-30T09:02:44;19.50;99.90
41262;DHT22;29629;52.532;13.352;2023-09-30T09:05:13;20.90;99.90
41262;DHT22;29629;52.532;13.352;2023-09-30T09:07:40;22.70;99.90
41262;DHT22;29629;52.532;13.352;2023-09-30T09:10:09;24.30;99.90
41262;DHT22;29629;52.532;13.352;2023-09-30T09:12:39;25.60;99.90
41262;DHT22;29629;52.532;13.352;2023-09-30T09:15:07;26.50;99.90
41262;DHT22;29629;52.532;13.352;2023-09-30T09:17:41;26.50;99.90
41262;DHT22;29629;52.532;13.352;2023-09-30T09:20:10;27.00;99.90
41262;DHT22;29629;52.532;13.352;2023-09-30T09:22:41;26.70;99.90
41262;DHT22;29629;52.532;13.352;2023-09-30T09:25:09;27.00;99.90
41262;DHT22;29629;52.532;13.352;2023-09-30T09:27:36;26.80;99.90
41262;DHT22;29629;52.532;13.352;2023-09-30T09:30:17;26.40;99.90
41262;DHT22;29629;52.532;13.352;2023-09-30T09:33:02;26.80;99.90
41262;DHT22;29629;52.532;13.352;2023-09-30T09:35:32;27.00;99.90
41262;DHT22;29629;52.532;13.352;2023-09-30T09:38:01;28.70;99.90
41262;DHT22;29629;52.532;13.352;2023-09-30T09:40:31;29.20;99.90
41262;DHT22;29629;52.532;13.352;2023-09-30T09:42:58;28.90;99.90
41262;DHT22;29629;52.532;13.352;2023-09-30T09:45:28;28.50;99.90
41262;DHT22;29629;52.532;13.352;2023-09-30T09:47:58;28.20;99.90
41262;DHT22;29629;52.532;13.352;2023-09-30T09:50:25;29.00;99.90
41262;DHT22;29629;52.532;13.352;2023-09-30T09:52:53;29.10;99.90
41262;DHT22;29629;52.532;13.352;2023-09-30T09:55:23;30.00;99.90
41262;DHT22;29629;52.532;13.352;2023-09-30T09:57:51;30.80;99.90
41262;DHT22;29629;52.532;13.352;2023-09-30T10:00:20;30.70;99.90
41262;DHT22;29629;52.532;13.352;2023-09-30T10:02:48;29.80;99.90
41262;DHT22;29629;52.532;13.352;2023-09-30T10:05:16;27.60;99.90
41262;DHT22;29629;52.532;13.352;2023-09-30T10:07:49;28.10;99.90
41262;DHT22;29629;52.532;13.352;2023-09-30T10:10:19;27.80;99.90
41262;DHT22;29629;52.532;13.352;2023-09-30T10:12:47;26.70;99.90
41262;DHT22;29629;52.532;13.352;2023-09-30T10:15:39;26.70;99.90
41262;DHT22;29629;52.532;13.352;2023-09-30T10:18:07;28.80;99.90
41262;DHT22;29629;52.532;13.352;2023-09-30T10:20:36;29.80;99.90
41262;DHT22;29629;52.532;13.352;2023-09-30T10:23:24;30.10;99.90
41262;DHT22;29629;52.532;13.352;2023-09-30T10:25:53;31.00;99.10
41262;DHT22;29629;52.532;13.352;2023-09-30T10:28:41;31.40;97.90
41262;DHT22;29629;52.532;13.352;2023-09-30T10:31:14;30.90;98.60
41262;DHT22;29629;52.532;13.352;2023-09-30T10:34:20;30.00;97.30
41262;DHT22;29629;52.532;13.352;2023-09-30T10:36:48;27.80;98.50
41262;DHT22;29629;52.532;13.352;2023-09-30T10:39:55;28.00;99.70
41262;DHT22;29629;52.532;13.352;2023-09-30T10:42:47;27.20;99.50
41262;DHT22;29629;52.532;13.352;2023-09-30T10:45:44;27.10;99.90
41262;DHT22;29629;52.532;13.352;2023-09-30T10:48:37;28.20;99.90
41262;DHT22;29629;52.532;13.352;2023-09-30T10:51:16;28.30;98.30
41262;DHT22;29629;52.532;13.352;2023-09-30T10:53:50;28.90;99.90
41262;DHT22;29629;52.532;13.352;2023-09-30T10:56:22;29.50;98.00
41262;DHT22;29629;52.532;13.352;2023-09-30T10:58:50;28.50;97.80
41262;DHT22;29629;52.532;13.352;2023-09-30T11:01:20;29.10;97.70
41262;DHT22;29629;52.532;13.352;2023-09-30T11:03:49;28.60;96.50
41262;DHT22;29629;52.532;13.352;2023-09-30T11:06:18;28.20;97.90
41262;DHT22;29629;52.532;13.352;2023-09-30T11:08:51;28.70;97.70
41262;DHT22;29629;52.532;13.352;2023-09-30T11:11:19;28.60;97.70
41262;DHT22;29629;52.532;13.352;2023-09-30T11:13:46;28.00;97.10
41262;DHT22;29629;52.532;13.352;2023-09-30T11:16:13;27.80;96.10
41262;DHT22;29629;52.532;13.352;2023-09-30T11:18:42;26.20;97.30
41262;DHT22;29629;52.532;13.352;2023-09-30T11:21:10;26.20;99.50
41262;DHT22;29629;52.532;13.352;2023-09-30T11:23:38;27.00;99.60
41262;DHT22;29629;52.532;13.352;2023-09-30T11:26:07;25.50;99.60
41262;DHT22;29629;52.532;13.352;2023-09-30T11:28:36;25.00;99.90
41262;DHT22;29629;52.532;13.352;2023-09-30T11:31:08;25.40;99.90
41262;DHT22;29629;52.532;13.352;2023-09-30T11:33:49;26.40;98.70
41262;DHT22;29629;52.532;13.352;2023-09-30T11:36:18;26.80;99.20
41262;DHT22;29629;52.532;13.352;2023-09-30T11:38:47;26.70;98.50
41262;DHT22;29629;52.532;13.352;2023-09-30T11:41:17;25.30;99.50
41262;DHT22;29629;52.532;13.352;2023-09-30T11:44:02;26.00;99.70
41262;DHT22;29629;52.532;13.352;2023-09-30T11:46:30;25.60;99.20
41262;DHT22;29629;52.532;13.352;2023-09-30T11:49:01;24.10;99.90
41262;DHT22;29629;52.532;13.352;2023-09-30T11:51:29;25.30;99.90
41262;DHT22;29629;52.532;13.352;2023-09-30T11:53:56;26.30;99.90
41262;DHT22;29629;52.532;13.352;2023-09-30T11:56:24;26.50;98.60
41262;DHT22;29629;52.532;13.352;2023-09-30T11:58:55;26.50;98.60
41262;DHT22;29629;52.532;13.352;2023-09-30T12:01:22;26.80;98.00
41262;DHT22;29629;52.532;13.352;2023-09-30T12:03:51;27.30;97.20
41262;DHT22;29629;52.532;13.352;2023-09-30T12:06:20;27.70;97.50
41262;DHT22;29629;52.532;13.352;2023-09-30T12:08:47;27.70;97.40
41262;DHT22;29629;52.532;13.352;2023-09-30T12:11:14;27.70;97.30
41262;DHT22;29629;52.532;13.352;2023-09-30T12:13:41;27.30;96.70
41262;DHT22;29629;52.532;13.352;2023-09-30T12:16:10;27.50;96.90
41262;DHT22;29629;52.532;13.352;2023-09-30T12:18:38;27.90;97.00
41262;DHT22;29629;52.532;13.352;2023-09-30T12:21:07;27.70;96.60
41262;DHT22;29629;52.532;13.352;2023-09-30T12:23:35;27.70;95.10
41262;DHT22;29629;52.532;13.352;2023-09-30T12:26:02;26.80;95.40
41262;DHT22;29629;52.532;13.352;2023-09-30T12:28:31;27.20;95.40
41262;DHT22;29629;52.532;13.352;2023-09-30T12:30:59;26.10;95.90
41262;DHT22;29629;52.532;13.352;2023-09-30T12:33:27;26.00;97.30
41262;DHT22;29629;52.532;13.352;2023-09-30T12:35:54;26.20;97.30
41262;DHT22;29629;52.532;13.352;2023-09-30T12:38:22;26.60;97.00
41262;DHT22;29629;52.532;13.352;2023-09-30T12:40:52;26.90;97.30
41262;DHT22;29629;52.532;13.352;2023-09-30T12:43:19;27.10;97.30
41262;DHT22;29629;52.532;13.352;2023-09-30T12:45:46;27.00;96.50
41262;DHT22;29629;52.532;13.352;2023-09-30T12:48:14;26.80;96.20
41262;DHT22;29629;52.532;13.352;2023-09-30T12:50:41;27.10;96.20
41262;DHT22;29629;52.532;13.352;2023-09-30T12:53:08;27.10;96.20
41262;DHT22;29629;52.532;13.352;2023-09-30T12:55:35;27.00;96.30
41262;DHT22;29629;52.532;13.352;2023-09-30T12:58:03;26.80;95.60
41262;DHT22;29629;52.532;13.352;2023-09-30T13:00:31;26.80;95.40
41262;DHT22;29629;52.532;13.352;2023-09-30T13:02:58;26.30;95.00
41262;DHT22;29629;52.532;13.352;2023-09-30T13:05:25;25.70;95.10
41262;DHT22;29629;52.532;13.352;2023-09-30T13:07:52;25.70;95.80
41262;DHT22;29629;52.532;13.352;2023-09-30T13:10:19;25.70;96.60
41262;DHT22;29629;52.532;13.352;2023-09-30T13:12:46;26.10;95.40
41262;DHT22;29629;52.532;13.352;2023-09-30T13:15:16;26.20;95.50
41262;DHT22;29629;52.532;13.352;2023-09-30T13:17:43;26.20;95.20
41262;DHT22;29629;52.532;13.352;2023-09-30T13:20:11;26.20;95.90
41262;DHT22;29629;52.532;13.352;2023-09-30T13:22:38;26.10;96.40
41262;DHT22;29629;52.532;13.352;2023-09-30T13:25:06;25.70;96.50
41262;DHT22;29629;52.532;13.352;2023-09-30T13:27:37;25.70;96.20
41262;DHT22;29629;52.532;13.352;2023-09-30T13:30:06;25.40;96.10
41262;DHT22;29629;52.532;13.352;2023-09-30T13:32:35;25.40;97.20
41262;DHT22;29629;52.532;13.352;2023-09-30T13:35:03;25.30;97.20
41262;DHT22;29629;52.532;13.352;2023-09-30T13:37:31;24.90;96.30
41262;DHT22;29629;52.532;13.352;2023-09-30T13:39:59;24.80;96.20
41262;DHT22;29629;52.532;13.352;2023-09-30T13:42:26;24.30;97.70
41262;DHT22;29629;52.532;13.352;2023-09-30T13:44:53;24.50;96.80
41262;DHT22;29629;52.532;13.352;2023-09-30T13:47:23;24.20;96.50
41262;DHT22;29629;52.532;13.352;2023-09-30T13:49:52;24.30;97.20
41262;DHT22;29629;52.532;13.352;2023-09-30T13:52:19;23.90;97.00
41262;DHT22;29629;52.532;13.352;2023-09-30T13:54:46;23.80;97.40
41262;DHT22;29629;52.532;13.352;2023-09-30T13:57:13;24.00;97.20
41262;DHT22;29629;52.532;13.352;2023-09-30T13:59:41;23.90;97.80
41262;DHT22;29629;52.532;13.352;2023-09-30T14:02:08;23.70;98.60
41262;DHT22;29629;52.532;13.352;2023-09-30T14:04:36;23.50;99.70
41262;DHT22;29629;52.532;13.352;2023-09-30T14:07:04;23.50;98.30
41262;DHT22;29629;52.532;13.352;2023-09-30T14:09:33;23.30;98.50
41262;DHT22;29629;52.532;13.352;2023-09-30T14:12:00;23.20;98.60
41262;DHT22;29629;52.532;13.352;2023-09-30T14:14:31;23.10;98.10
41262;DHT22;29629;52.532;13.352;2023-09-30T14:16:58;23.00;98.30
41262;DHT22;29629;52.532;13.352;2023-09-30T14:19:24;22.80;98.70
41262;DHT22;29629;52.532;13.352;2023-09-30T14:21:51;22.60;98.80
41262;DHT22;29629;52.532;13.352;2023-09-30T14:24:20;22.50;99.10
41262;DHT22;29629;52.532;13.352;2023-09-30T14:26:47;22.30;98.70
41262;DHT22;29629;52.532;13.352;2023-09-30T14:29:14;22.30;98.70
41262;DHT22;29629;52.532;13.352;2023-09-30T14:31:40;22.10;99.00
41262;DHT22;29629;52.532;13.352;2023-09-30T14:34:07;22.00;99.10
41262;DHT22;29629;52.532;13.352;2023-09-30T14:36:35;22.00;98.90
41262;DHT22;29629;52.532;13.352;2023-09-30T14:39:02;22.00;99.00
41262;DHT22;29629;52.532;13.352;2023-09-30T14:41:31;21.90;99.10
41262;DHT22;29629;52.532;13.352;2023-09-30T14:44:00;21.70;99.80
41262;DHT22;29629;52.532;13.352;2023-09-30T14:46:29;21.70;99.90
41262;DHT22;29629;52.532;13.352;2023-09-30T14:48:56;21.60;99.90
41262;DHT22;29629;52.532;13.352;2023-09-30T14:51:23;21.50;99.90
41262;DHT22;29629;52.532;13.352;2023-09-30T14:53:50;21.50;99.90
41262;DHT22;29629;52.532;13.352;2023-09-30T14:56:17;21.30;99.90
41262;DHT22;29629;52.532;13.352;2023-09-30T14:58:46;21.30;99.90
41262;DHT22;29629;52.532;13.352;2023-09-30T15:01:13;21.20;99.90
41262;DHT22;29629;52.532;13.352;2023-09-30T15:03:40;21.10;99.90
41262;DHT22;29629;52.532;13.352;2023-09-30T15:06:07;21.00;99.90
41262;DHT22;29629;52.532;13.352;2023-09-30T15:08:35;20.90;99.90
41262;DHT22;29629;52.532;13.352;2023-09-30T15:11:02;21.00;99.90
41262;DHT22;29629;52.532;13.352;2023-09-30T15:13:29;20.80;99.90
41262;DHT22;29629;52.532;13.352;2023-09-30T15:15:58;20.70;99.90
41262;DHT22;29629;52.532;13.352;2023-09-30T15:18:25;20.70;99.90
41262;DHT22;29629;52.532;13.352;2023-09-30T15:20:52;20.60;99.90
41262;DHT22;29629;52.532;13.352;2023-09-30T15:23:19;20.60;99.90